createdAt,value
2018-02-25T00:01:24.182Z,1.63
2018-02-25T00:03:56.913Z,1.59
2018-02-25T00:06:29.847Z,1.49
2018-02-25T00:09:01.356Z,1.46
2018-02-25T00:11:35.540Z,1.51
2018-02-25T00:14:12.469Z,1.36
2018-02-25T00:19:17.574Z,1.30
2018-02-25T00:21:52.922Z,1.29
2018-02-25T00:24:25.591Z,1.25
2018-02-25T00:26:58.577Z,1.18
2018-02-25T00:29:35.571Z,1.22
2018-02-25T00:32:09.279Z,1.21
2018-02-25T00:34:42.249Z,1.32
2018-02-25T00:37:15.968Z,1.25
2018-02-25T00:39:50.066Z,1.17
2018-02-25T00:42:26.508Z,1.08
2018-02-25T00:45:04.382Z,1.13
2018-02-25T00:47:37.523Z,1.25
2018-02-25T00:50:11.114Z,1.22
2018-02-25T00:52:42.646Z,1.22
2018-02-25T00:55:16.051Z,1.19
2018-02-25T00:57:48.409Z,1.20
2018-02-25T01:00:20.163Z,1.18
2018-02-25T01:02:55.086Z,1.15
2018-02-25T01:05:27.510Z,1.04
2018-02-25T01:08:01.314Z,1.06
2018-02-25T01:10:34.569Z,1.11
2018-02-25T01:13:07.407Z,1.12
2018-02-25T01:15:41.803Z,1.11
2018-02-25T01:18:15.035Z,1.08
2018-02-25T01:20:50.615Z,0.90
2018-02-25T01:23:31.762Z,0.87
2018-02-25T01:26:04.456Z,0.83
2018-02-25T01:28:37.475Z,0.79
2018-02-25T01:31:10.057Z,0.88
2018-02-25T01:33:42.582Z,0.86
2018-02-25T01:36:14.516Z,0.82
2018-02-25T01:38:46.414Z,0.86
2018-02-25T01:41:18.340Z,0.80
2018-02-25T01:43:50.298Z,0.77
2018-02-25T01:46:22.933Z,0.74
2018-02-25T01:48:55.620Z,0.70
2018-02-25T01:51:27.717Z,0.59
2018-02-25T01:53:59.763Z,0.56
2018-02-25T01:56:33.135Z,0.61
2018-02-25T01:59:04.900Z,0.58
2018-02-25T02:01:39.664Z,0.65
2018-02-25T02:04:11.831Z,0.65
2018-02-25T02:06:44.960Z,0.60
2018-02-25T02:09:44.359Z,0.64
2018-02-25T02:12:16.682Z,0.56
2018-02-25T02:14:48.741Z,0.53
2018-02-25T02:17:21.631Z,0.50
2018-02-25T02:19:53.561Z,0.44
2018-02-25T02:22:25.751Z,0.42
2018-02-25T02:24:57.770Z,0.45
2018-02-25T02:27:30.447Z,0.43
2018-02-25T02:30:04.676Z,0.38
2018-02-25T02:32:36.766Z,0.29
2018-02-25T02:35:08.538Z,0.24
2018-02-25T02:37:41.176Z,0.21
2018-02-25T02:40:13.508Z,0.17
2018-02-25T02:42:46.601Z,0.14
2018-02-25T02:45:18.998Z,0.15
2018-02-25T02:50:33.663Z,0.10
2018-02-25T02:53:06.402Z,0.12
2018-02-25T02:55:38.347Z,0.18
2018-02-25T02:58:10.301Z,0.07
2018-02-25T03:00:46.228Z,0.00
2018-02-25T03:03:22.017Z,-0.01
2018-02-25T03:05:54.195Z,-0.07
2018-02-25T03:08:26.327Z,0.04
2018-02-25T03:11:01.625Z,-0.01
2018-02-25T03:13:33.904Z,-0.04
2018-02-25T03:16:06.570Z,-0.15
2018-02-25T03:18:38.769Z,-0.16
2018-02-25T03:21:11.075Z,-0.32
2018-02-25T03:23:42.823Z,-0.35
2018-02-25T03:26:16.003Z,-0.24
2018-02-25T03:28:48.290Z,-0.29
2018-02-25T03:31:20.227Z,-0.35
2018-02-25T03:33:57.593Z,-0.33
2018-02-25T03:36:29.261Z,-0.39
2018-02-25T03:39:00.900Z,-0.41
2018-02-25T03:41:32.983Z,-0.52
2018-02-25T03:44:04.360Z,-0.55
2018-02-25T03:46:37.737Z,-0.53
2018-02-25T03:49:10.084Z,-0.58
2018-02-25T03:51:42.787Z,-0.61
2018-02-25T03:54:14.369Z,-0.56
2018-02-25T03:56:52.236Z,-0.62
2018-02-25T03:59:23.658Z,-0.63
2018-02-25T04:01:55.879Z,-0.78
2018-02-25T04:04:27.376Z,-0.76
2018-02-25T04:06:58.775Z,-0.77
2018-02-25T04:09:31.052Z,-0.82
2018-02-25T04:12:03.867Z,-0.92
2018-02-25T04:14:35.326Z,-0.93
2018-02-25T04:17:07.463Z,-0.91
2018-02-25T04:19:40.261Z,-0.99
2018-02-25T04:22:17.375Z,-1.08
2018-02-25T04:24:49.405Z,-1.00
2018-02-25T04:27:21.829Z,-0.96
2018-02-25T04:29:52.869Z,-0.98
2018-02-25T04:32:24.499Z,-0.95
2018-02-25T04:34:55.600Z,-0.99
2018-02-25T04:37:26.688Z,-1.05
2018-02-25T04:39:57.677Z,-1.04
2018-02-25T04:42:28.772Z,-0.96
2018-02-25T04:44:59.861Z,-1.16
2018-02-25T04:47:31.923Z,-0.98
2018-02-25T04:50:03.454Z,-1.04
2018-02-25T04:52:34.482Z,-1.01
2018-02-25T04:55:05.667Z,-1.03
2018-02-25T04:57:37.822Z,-1.11
2018-02-25T05:00:16.878Z,-1.08
2018-02-25T05:02:52.738Z,-1.14
2018-02-25T05:05:23.697Z,-1.04
2018-02-25T05:07:55.822Z,-1.03
2018-02-25T05:10:28.127Z,-1.05
2018-02-25T05:13:00.249Z,-1.01
2018-02-25T05:15:32.075Z,-1.02
2018-02-25T05:18:03.607Z,-1.02
2018-02-25T05:20:35.035Z,-1.10
2018-02-25T05:23:07.310Z,-1.20
2018-02-25T05:25:39.052Z,-1.18
2018-02-25T05:28:10.324Z,-1.22
2018-02-25T05:30:43.115Z,-1.23
2018-02-25T05:33:15.946Z,-1.26
2018-02-25T05:35:53.969Z,-1.24
2018-02-25T05:38:25.640Z,-1.26
2018-02-25T05:40:56.838Z,-1.20
2018-02-25T05:43:28.243Z,-1.25
2018-02-25T05:46:00.521Z,-1.28
2018-02-25T05:48:32.841Z,-1.18
2018-02-25T05:51:04.992Z,-1.32
2018-02-25T05:53:37.499Z,-1.24
2018-02-25T05:56:10.068Z,-1.19
2018-02-25T05:58:41.662Z,-1.22
2018-02-25T06:01:13.458Z,-1.14
2018-02-25T06:03:45.694Z,-1.09
2018-02-25T06:06:16.959Z,-0.97
2018-02-25T06:11:16.078Z,-1.06
2018-02-25T06:13:48.039Z,-0.96
2018-02-25T06:16:20.606Z,-0.88
2018-02-25T06:18:55.635Z,-1.03
2018-02-25T06:21:27.916Z,-1.14
2018-02-25T06:24:08.817Z,-1.01
2018-02-25T06:26:43.824Z,-1.22
2018-02-25T06:29:16.721Z,-1.12
2018-02-25T06:31:54.523Z,-1.07
2018-02-25T06:34:29.272Z,-1.02
2018-02-25T06:37:02.889Z,-1.08
2018-02-25T06:39:35.366Z,-1.18
2018-02-25T06:42:08.132Z,-1.42
2018-02-25T06:44:42.017Z,-1.16
2018-02-25T06:47:15.196Z,-1.25
2018-02-25T06:49:47.713Z,-1.18
2018-02-25T06:52:21.335Z,-1.25
2018-02-25T06:54:54.041Z,-1.19
2018-02-25T06:57:27.748Z,-1.16
2018-02-25T06:59:59.680Z,-1.22
2018-02-25T07:02:31.807Z,-1.25
2018-02-25T07:05:07.896Z,-1.26
2018-02-25T07:07:49.607Z,-1.38
2018-02-25T07:10:29.953Z,-1.42
2018-02-25T07:13:02.202Z,-1.49
2018-02-25T07:15:34.229Z,-1.64
2018-02-25T07:18:08.512Z,-1.62
2018-02-25T07:20:48.986Z,-1.60
2018-02-25T07:23:20.952Z,-1.58
2018-02-25T07:25:52.968Z,-1.53
2018-02-25T07:28:25.082Z,-1.51
2018-02-25T07:30:57.185Z,-1.40
2018-02-25T07:33:29.229Z,-1.36
2018-02-25T07:36:02.169Z,-1.22
2018-02-25T07:38:33.948Z,-1.11
2018-02-25T07:41:05.754Z,-1.12
2018-02-25T07:43:38.383Z,-1.09
2018-02-25T07:46:10.810Z,-1.08
2018-02-25T07:48:44.524Z,-0.75
2018-02-25T07:51:16.504Z,-0.58
2018-02-25T07:53:49.565Z,-0.33
2018-02-25T07:56:21.612Z,-0.19
2018-02-25T07:58:54.259Z,-0.16
2018-02-25T08:01:26.748Z,-0.04
2018-02-25T08:03:58.685Z,-0.03
2018-02-25T08:06:30.404Z,-0.04
2018-02-25T08:09:01.812Z,0.27
2018-02-25T08:11:34.175Z,0.24
2018-02-25T08:14:05.929Z,0.38
2018-02-25T08:16:37.838Z,0.44
2018-02-25T08:19:09.902Z,0.60
2018-02-25T08:21:41.619Z,0.58
2018-02-25T08:24:13.255Z,0.56
2018-02-25T08:26:44.978Z,0.75
2018-02-25T08:29:16.609Z,0.88
2018-02-25T08:31:49.684Z,1.18
2018-02-25T08:34:21.974Z,1.38
2018-02-25T08:39:29.939Z,1.57
2018-02-25T08:42:01.398Z,1.61
2018-02-25T08:44:33.051Z,1.84
2018-02-25T08:47:05.527Z,2.22
2018-02-25T08:49:37.069Z,2.49
2018-02-25T08:52:10.169Z,2.62
2018-02-25T08:54:44.043Z,2.96
2018-02-25T08:57:15.580Z,3.30
2018-02-25T08:59:47.017Z,3.40
2018-02-25T09:02:19.010Z,3.24
2018-02-25T09:04:50.884Z,3.10
2018-02-25T09:07:23.664Z,3.35
2018-02-25T09:09:56.232Z,3.54
2018-02-25T09:12:27.498Z,3.52
2018-02-25T09:15:00.182Z,3.73
2018-02-25T09:17:34.030Z,3.98
2018-02-25T09:20:05.836Z,4.40
2018-02-25T09:22:37.390Z,4.84
2018-02-25T09:25:09.476Z,4.77
2018-02-25T09:27:41.770Z,5.10
2018-02-25T09:30:16.180Z,4.92
2018-02-25T09:32:47.558Z,5.00
2018-02-25T09:35:19.283Z,5.11
2018-02-25T09:37:50.571Z,5.09
2018-02-25T09:40:22.228Z,5.41
2018-02-25T09:42:56.756Z,6.31
2018-02-25T09:45:29.202Z,6.63
2018-02-25T09:48:01.198Z,6.23
2018-02-25T09:50:32.622Z,6.94
2018-02-25T09:53:04.276Z,7.26
2018-02-25T09:55:35.802Z,7.48
2018-02-25T09:58:08.248Z,7.36
2018-02-25T10:00:41.356Z,7.08
2018-02-25T10:03:14.774Z,7.41
2018-02-25T10:05:49.067Z,7.77
2018-02-25T10:08:20.813Z,8.19
2018-02-25T10:10:57.752Z,6.87
2018-02-25T10:13:29.103Z,7.22
2018-02-25T10:16:01.083Z,8.13
2018-02-25T10:18:55.775Z,8.70
2018-02-25T10:21:30.606Z,8.66
2018-02-25T10:24:03.949Z,9.17
2018-02-25T10:26:35.393Z,8.26
2018-02-25T10:29:13.038Z,7.99
2018-02-25T10:31:45.374Z,8.98
2018-02-25T10:34:17.166Z,8.92
2018-02-25T10:36:52.193Z,8.97
2018-02-25T10:39:26.310Z,9.14
2018-02-25T10:42:06.714Z,9.01
2018-02-25T10:44:38.810Z,8.50
2018-02-25T10:47:10.966Z,8.43
2018-02-25T10:49:42.886Z,8.48
2018-02-25T10:52:14.866Z,9.36
2018-02-25T10:54:46.527Z,9.26
2018-02-25T10:57:18.050Z,8.91
2018-02-25T10:59:51.718Z,8.73
2018-02-25T11:02:23.405Z,9.21
2018-02-25T11:04:57.615Z,9.23
2018-02-25T11:07:28.695Z,8.93
2018-02-25T11:10:06.093Z,9.08
2018-02-25T11:12:37.949Z,9.33
2018-02-25T11:15:13.775Z,8.43
2018-02-25T11:17:46.163Z,8.30
2018-02-25T11:20:17.632Z,7.88
2018-02-25T11:22:50.756Z,7.55
2018-02-25T11:25:22.113Z,7.63
2018-02-25T11:28:03.445Z,7.71
2018-02-25T11:30:36.002Z,8.02
2018-02-25T11:33:09.385Z,8.31
2018-02-25T11:35:42.256Z,8.09
2018-02-25T11:38:14.901Z,8.08
2018-02-25T11:40:46.550Z,7.97
2018-02-25T11:43:18.699Z,7.67
2018-02-25T11:45:52.158Z,7.46
2018-02-25T11:48:23.502Z,7.60
2018-02-25T11:50:58.583Z,7.87
2018-02-25T11:53:32.395Z,7.67
2018-02-25T11:56:05.728Z,7.41
2018-02-25T11:58:38.391Z,7.26
2018-02-25T12:01:11.131Z,7.39
2018-02-25T12:03:43.392Z,7.74
2018-02-25T12:06:16.199Z,7.91
2018-02-25T12:08:54.860Z,7.59
2018-02-25T12:11:27.910Z,7.44
2018-02-25T12:14:00.792Z,7.53
2018-02-25T12:16:32.730Z,7.60
2018-02-25T12:19:04.810Z,7.29
2018-02-25T12:21:36.820Z,7.19
2018-02-25T12:24:08.027Z,6.82
2018-02-25T12:26:41.275Z,6.82
2018-02-25T12:29:12.743Z,6.57
2018-02-25T12:31:44.287Z,6.50
2018-02-25T12:34:16.215Z,7.03
2018-02-25T12:36:48.345Z,7.33
2018-02-25T12:39:20.550Z,7.09
2018-02-25T12:41:53.247Z,6.75
2018-02-25T12:44:28.084Z,6.78
2018-02-25T12:47:01.241Z,6.74
2018-02-25T12:49:32.835Z,6.67
2018-02-25T12:52:08.953Z,6.56
2018-02-25T12:54:41.276Z,6.48
2018-02-25T12:57:30.985Z,6.02
2018-02-25T13:00:07.044Z,6.11
2018-02-25T13:02:38.831Z,5.87
2018-02-25T13:05:11.663Z,5.92
2018-02-25T13:07:43.195Z,6.04
2018-02-25T13:10:15.305Z,5.76
2018-02-25T13:12:46.984Z,5.75
2018-02-25T13:15:22.211Z,5.66
2018-02-25T13:17:54.835Z,5.82
2018-02-25T13:20:26.146Z,5.77
2018-02-25T13:22:58.187Z,5.91
2018-02-25T13:25:31.082Z,6.00
2018-02-25T13:28:03.963Z,5.69
2018-02-25T13:30:36.681Z,5.83
2018-02-25T13:33:08.038Z,5.85
2018-02-25T13:35:39.742Z,5.78
2018-02-25T13:38:11.376Z,5.63
2018-02-25T13:40:42.836Z,5.73
2018-02-25T13:43:14.173Z,5.59
2018-02-25T13:45:46.829Z,5.64
2018-02-25T13:48:18.169Z,5.62
2018-02-25T13:50:49.806Z,5.42
2018-02-25T13:53:21.406Z,5.14
2018-02-25T13:55:52.818Z,5.07
2018-02-25T13:58:26.620Z,4.67
2018-02-25T14:01:02.037Z,4.32
2018-02-25T14:03:37.330Z,4.58
2018-02-25T14:06:09.075Z,4.58
2018-02-25T14:08:40.565Z,4.59
2018-02-25T14:11:18.625Z,4.49
2018-02-25T14:13:50.538Z,4.47
2018-02-25T14:16:21.982Z,4.49
2018-02-25T14:18:55.905Z,4.21
2018-02-25T14:21:32.600Z,4.27
2018-02-25T14:24:12.580Z,4.25
2018-02-25T14:26:45.121Z,4.29
2018-02-25T14:29:17.178Z,4.08
2018-02-25T14:31:49.212Z,4.06
2018-02-25T14:34:20.505Z,3.94
2018-02-25T14:36:51.811Z,3.98
2018-02-25T14:39:23.460Z,4.02
2018-02-25T14:41:55.257Z,4.09
2018-02-25T14:44:26.555Z,3.94
2018-02-25T14:46:58.950Z,3.81
2018-02-25T14:49:30.287Z,3.76
2018-02-25T14:52:04.087Z,3.92
2018-02-25T14:54:35.687Z,3.91
2018-02-25T14:57:08.022Z,3.85
2018-02-25T15:02:17.778Z,3.28
2018-02-25T15:04:49.642Z,3.11
2018-02-25T15:07:21.645Z,3.30
2018-02-25T15:09:55.091Z,3.42
2018-02-25T15:12:26.300Z,3.46
2018-02-25T15:14:58.159Z,3.27
2018-02-25T15:17:29.854Z,3.20
2018-02-25T15:20:04.418Z,3.26
2018-02-25T15:22:35.901Z,3.11
2018-02-25T15:25:07.965Z,3.00
2018-02-25T15:27:40.340Z,3.05
2018-02-25T15:30:14.948Z,3.02
2018-02-25T15:32:50.374Z,3.02
2018-02-25T15:35:22.352Z,3.00
2018-02-25T15:37:54.388Z,2.98
2018-02-25T15:40:25.853Z,2.88
2018-02-25T15:42:57.244Z,3.08
2018-02-25T15:45:29.491Z,3.09
2018-02-25T15:48:00.653Z,3.04
2018-02-25T15:50:32.675Z,3.05
2018-02-25T15:53:05.435Z,3.00
2018-02-25T15:55:37.653Z,2.88
2018-02-25T15:58:09.947Z,2.84
2018-02-25T16:00:42.350Z,2.68
2018-02-25T16:03:13.683Z,2.58
2018-02-25T16:05:45.026Z,2.59
2018-02-25T16:08:17.384Z,2.61
2018-02-25T16:10:49.467Z,2.52
2018-02-25T16:13:22.252Z,2.40
2018-02-25T16:15:54.919Z,2.44
2018-02-25T16:18:26.606Z,2.32
2018-02-25T16:20:59.470Z,2.04
2018-02-25T16:23:32.761Z,2.06
2018-02-25T16:26:06.354Z,2.11
2018-02-25T16:28:39.927Z,2.20
2018-02-25T16:31:15.428Z,2.13
2018-02-25T16:33:48.602Z,2.20
2018-02-25T16:36:20.431Z,2.12
2018-02-25T16:38:53.420Z,2.09
2018-02-25T16:41:25.719Z,2.03
2018-02-25T16:44:00.029Z,1.94
2018-02-25T16:46:40.123Z,1.90
2018-02-25T16:49:24.492Z,1.80
2018-02-25T16:51:57.554Z,1.64
2018-02-25T16:54:31.508Z,1.71
2018-02-25T16:57:04.669Z,1.77
2018-02-25T16:59:39.276Z,1.70
2018-02-25T17:02:14.782Z,1.70
2018-02-25T17:04:46.356Z,1.75
2018-02-25T17:07:18.155Z,1.72
2018-02-25T17:09:50.238Z,1.75
2018-02-25T17:12:23.128Z,1.69
2018-02-25T17:14:54.814Z,1.60
2018-02-25T17:17:27.905Z,1.52
2018-02-25T17:20:03.424Z,1.60
2018-02-25T17:22:35.473Z,1.60
2018-02-25T17:25:06.506Z,1.60
2018-02-25T17:27:38.563Z,1.63
2018-02-25T17:30:09.919Z,1.62
2018-02-25T17:32:44.194Z,1.39
2018-02-25T17:35:18.615Z,1.50
2018-02-25T17:37:49.609Z,1.45
2018-02-25T17:40:22.685Z,1.48
2018-02-25T17:42:54.717Z,1.54
2018-02-25T17:45:27.671Z,1.48
2018-02-25T17:48:00.874Z,1.62
2018-02-25T17:50:33.211Z,1.64
2018-02-25T17:53:09.554Z,1.63
2018-02-25T17:55:41.470Z,1.41
2018-02-25T17:58:14.822Z,1.56
2018-02-25T18:00:48.733Z,1.70
2018-02-25T18:03:24.267Z,1.70
2018-02-25T18:05:57.749Z,1.71
2018-02-25T18:08:30.024Z,1.83
2018-02-25T18:11:01.276Z,1.87
2018-02-25T18:13:33.465Z,1.82
2018-02-25T18:16:05.695Z,1.78
2018-02-25T18:18:37.350Z,1.74
2018-02-25T18:21:09.324Z,1.73
2018-02-25T18:23:41.433Z,1.54
2018-02-25T18:26:12.410Z,1.56
2018-02-25T18:28:46.057Z,1.51
2018-02-25T18:31:18.303Z,1.39
2018-02-25T18:33:50.590Z,1.32
2018-02-25T18:36:25.236Z,1.32
2018-02-25T18:38:57.913Z,1.13
2018-02-25T18:41:29.612Z,1.14
2018-02-25T18:44:05.541Z,1.07
2018-02-25T18:46:41.250Z,1.18
2018-02-25T18:49:14.588Z,1.24
2018-02-25T18:51:50.133Z,1.21
2018-02-25T18:54:28.953Z,1.15
2018-02-25T18:57:10.415Z,1.16
2018-02-25T18:59:43.057Z,1.12
2018-02-25T19:02:15.326Z,1.05
2018-02-25T19:04:47.258Z,0.91
2018-02-25T19:07:19.210Z,1.04
2018-02-25T19:09:50.422Z,1.00
2018-02-25T19:12:22.862Z,0.95
2018-02-25T19:15:04.057Z,1.01
2018-02-25T19:17:44.557Z,1.04
2018-02-25T19:20:16.413Z,0.91
2018-02-25T19:22:48.886Z,0.77
2018-02-25T19:25:20.046Z,0.57
2018-02-25T19:27:51.970Z,0.46
2018-02-25T19:30:24.341Z,0.42
2018-02-25T19:32:56.546Z,0.49
2018-02-25T19:35:34.080Z,0.53
2018-02-25T19:40:17.779Z,0.45
2018-02-25T19:42:50.544Z,0.29
2018-02-25T19:45:23.653Z,0.15
2018-02-25T19:47:55.940Z,0.11
2018-02-25T19:50:28.872Z,0.08
2018-02-25T19:53:01.146Z,0.10
2018-02-25T19:55:33.791Z,0.19
2018-02-25T19:58:06.548Z,0.24
2018-02-25T20:00:40.116Z,0.37
2018-02-25T20:03:12.694Z,0.32
2018-02-25T20:05:48.619Z,0.37
2018-02-25T20:08:20.934Z,0.39
2018-02-25T20:10:53.440Z,0.36
2018-02-25T20:13:25.805Z,-0.07
2018-02-25T20:15:58.095Z,0.19
2018-02-25T20:18:32.743Z,0.25
2018-02-25T20:21:03.870Z,0.17
2018-02-25T20:23:39.512Z,0.16
2018-02-25T20:26:11.936Z,0.13
2018-02-25T20:28:44.765Z,0.09
2018-02-25T20:31:18.263Z,0.09
2018-02-25T20:33:50.400Z,0.22
2018-02-25T20:36:23.577Z,0.11
2018-02-25T20:38:55.878Z,0.09
2018-02-25T20:41:29.178Z,0.09
2018-02-25T20:44:00.969Z,0.20
2018-02-25T20:46:35.775Z,0.17
2018-02-25T20:49:07.693Z,0.12
2018-02-25T20:51:40.234Z,-0.05
2018-02-25T20:54:11.930Z,-0.15
2018-02-25T20:56:44.270Z,-0.24
2018-02-25T20:59:16.987Z,-0.31
2018-02-25T21:01:50.606Z,-0.21
2018-02-25T21:04:24.078Z,-0.18
2018-02-25T21:06:59.398Z,-0.16
2018-02-25T21:12:40.195Z,-0.17
2018-02-25T21:15:19.735Z,-0.19
2018-02-25T21:18:06.427Z,-0.25
2018-02-25T21:20:53.543Z,-0.21
2018-02-25T21:23:30.327Z,-0.21
2018-02-25T21:26:05.932Z,-0.33
2018-02-25T21:28:43.000Z,-0.34
2018-02-25T21:31:17.216Z,-0.32
2018-02-25T21:34:01.029Z,-0.38
2018-02-25T21:36:36.971Z,-0.38
2018-02-25T21:39:10.681Z,-0.30
2018-02-25T21:41:42.801Z,-0.23
2018-02-25T21:44:16.700Z,-0.36
2018-02-25T21:46:52.133Z,-0.35
2018-02-25T21:50:04.956Z,-0.45
2018-02-25T21:52:49.877Z,-0.39
2018-02-25T21:55:26.393Z,-0.41
2018-02-25T22:00:09.669Z,-0.46
2018-02-25T22:03:52.982Z,-0.45
2018-02-25T22:06:25.310Z,-0.46
2018-02-25T22:08:58.744Z,-0.50
2018-02-25T22:14:11.224Z,-0.56
2018-02-25T22:17:02.169Z,-0.59
2018-02-25T22:19:48.290Z,-0.61
2018-02-25T22:22:21.624Z,-0.65
2018-02-25T22:24:55.148Z,-0.69
2018-02-25T22:30:16.560Z,-0.70
2018-02-25T22:33:01.880Z,-0.70
2018-02-25T22:35:34.676Z,-0.74
2018-02-25T22:38:09.747Z,-0.78
2018-02-25T22:40:52.948Z,-0.78
2018-02-25T22:43:25.939Z,-0.79
2018-02-25T22:46:06.214Z,-0.82
2018-02-25T22:48:50.093Z,-0.74
2018-02-25T22:51:25.470Z,-0.68
2018-02-25T22:54:15.363Z,-0.71
2018-02-25T22:57:12.896Z,-0.78
2018-02-25T22:59:54.712Z,-0.74
2018-02-25T23:02:31.764Z,-0.78
2018-02-25T23:05:23.383Z,-0.69
2018-02-25T23:08:13.032Z,-0.80
2018-02-25T23:10:54.138Z,-0.83
2018-02-25T23:14:00.880Z,-0.71
2018-02-25T23:16:35.198Z,-0.78
2018-02-25T23:19:06.962Z,-0.79
2018-02-25T23:21:40.858Z,-0.75
2018-02-25T23:26:55.909Z,-0.84
2018-02-25T23:29:34.273Z,-0.75
2018-02-25T23:32:14.238Z,-0.65
2018-02-25T23:35:05.047Z,-0.63
2018-02-25T23:37:38.516Z,-0.66
2018-02-25T23:40:11.058Z,-0.66
2018-02-25T23:42:43.591Z,-0.79
2018-02-25T23:45:22.156Z,-0.84
2018-02-25T23:47:57.553Z,-0.81
2018-02-25T23:50:49.271Z,-0.77
2018-02-25T23:53:21.723Z,-0.75
2018-02-25T23:55:53.491Z,-0.77
2018-02-25T23:58:25.133Z,-0.77
